createdAt,value
2018-06-09T00:00:12.370Z,99105.30
2018-06-09T00:01:48.350Z,99100.65
2018-06-09T00:03:24.294Z,99102.52
2018-06-09T00:05:00.236Z,99097.43
2018-06-09T00:06:36.220Z,99105.94
2018-06-09T00:08:14.309Z,99098.14
2018-06-09T00:09:50.261Z,99095.91
2018-06-09T00:11:26.237Z,99099.77
2018-06-09T00:13:02.370Z,99098.13
2018-06-09T00:14:38.321Z,99104.55
2018-06-09T00:16:14.411Z,99100.98
2018-06-09T00:17:50.427Z,99100.25
2018-06-09T00:19:26.368Z,99091.12
2018-06-09T00:21:02.327Z,99095.84
2018-06-09T00:22:38.381Z,99093.00
2018-06-09T00:24:14.379Z,99097.69
2018-06-09T00:25:50.324Z,99094.87
2018-06-09T00:27:26.312Z,99097.61
2018-06-09T00:29:02.329Z,99101.25
2018-06-09T00:30:38.287Z,99107.25
2018-06-09T00:32:14.213Z,99108.79
2018-06-09T00:33:58.084Z,99111.84
2018-06-09T00:35:34.148Z,99106.90
2018-06-09T00:37:10.076Z,99115.80
2018-06-09T00:38:46.129Z,99110.81
2018-06-09T00:40:22.148Z,99121.08
2018-06-09T00:41:58.091Z,99132.23
2018-06-09T00:43:34.302Z,99139.55
2018-06-09T00:45:10.342Z,99144.73
2018-06-09T00:46:46.362Z,99144.78
2018-06-09T00:48:22.346Z,99149.47
2018-06-09T00:49:59.411Z,99152.48
2018-06-09T00:51:35.368Z,99145.17
2018-06-09T00:53:11.421Z,99148.82
2018-06-09T00:54:47.392Z,99146.02
2018-06-09T00:56:40.425Z,99148.69
2018-06-09T00:58:16.380Z,99146.55
2018-06-09T00:59:52.313Z,99152.52
2018-06-09T01:01:28.508Z,99151.54
2018-06-09T01:03:04.530Z,99152.52
2018-06-09T01:04:40.648Z,99151.20
2018-06-09T01:06:16.996Z,99153.17
2018-06-09T01:07:53.039Z,99144.14
2018-06-09T01:09:29.000Z,99146.61
2018-06-09T01:11:04.943Z,99145.77
2018-06-09T01:12:40.950Z,99137.97
2018-06-09T01:14:16.887Z,99143.45
2018-06-09T01:15:52.817Z,99144.14
2018-06-09T01:17:29.014Z,99147.44
2018-06-09T01:19:04.986Z,99148.16
2018-06-09T01:20:40.995Z,99152.16
2018-06-09T01:22:17.451Z,99149.84
2018-06-09T01:23:53.488Z,99153.80
2018-06-09T01:25:29.493Z,99146.44
2018-06-09T01:27:05.500Z,99141.22
2018-06-09T01:28:41.508Z,99145.06
2018-06-09T01:30:17.465Z,99141.65
2018-06-09T01:31:53.750Z,99151.47
2018-06-09T01:33:29.702Z,99147.48
2018-06-09T01:35:05.800Z,99148.16
2018-06-09T01:36:41.772Z,99148.16
2018-06-09T01:38:17.719Z,99151.62
2018-06-09T01:39:53.696Z,99157.48
2018-06-09T01:41:29.923Z,99152.16
2018-06-09T01:43:06.119Z,99146.53
2018-06-09T01:44:42.092Z,99146.87
2018-06-09T01:46:18.103Z,99145.05
2018-06-09T01:47:54.166Z,99132.83
2018-06-09T01:49:30.142Z,99127.48
2018-06-09T01:51:06.071Z,99124.83
2018-06-09T01:52:42.111Z,99126.73
2018-06-09T01:54:18.084Z,99129.09
2018-06-09T01:55:54.232Z,99127.77
2018-06-09T01:57:30.304Z,99126.63
2018-06-09T01:59:06.232Z,99126.48
2018-06-09T02:00:42.348Z,99123.16
2018-06-09T02:02:18.275Z,99119.39
2018-06-09T02:03:54.212Z,99114.41
2018-06-09T02:05:30.267Z,99117.72
2018-06-09T02:07:06.241Z,99116.37
2018-06-09T02:08:42.231Z,99102.45
2018-06-09T02:10:18.204Z,99104.25
2018-06-09T02:11:54.315Z,99102.23
2018-06-09T02:13:30.266Z,99097.74
2018-06-09T02:15:07.167Z,99098.20
2018-06-09T02:16:43.152Z,99102.23
2018-06-09T02:18:19.140Z,99104.58
2018-06-09T02:19:55.099Z,99100.44
2018-06-09T02:21:31.156Z,99105.30
2018-06-09T02:23:07.403Z,99108.17
2018-06-09T02:24:43.392Z,99107.67
2018-06-09T02:26:19.507Z,99109.97
2018-06-09T02:27:55.627Z,99111.64
2018-06-09T02:29:31.601Z,99107.34
2018-06-09T02:31:07.603Z,99105.70
2018-06-09T02:32:43.647Z,99097.58
2018-06-09T02:34:19.946Z,99099.74
2018-06-09T02:35:55.919Z,99092.75
2018-06-09T02:37:32.203Z,99097.21
2018-06-09T02:39:09.205Z,99099.35
2018-06-09T02:40:45.182Z,99095.67
2018-06-09T02:42:21.265Z,99101.00
2018-06-09T02:43:57.201Z,99098.52
2018-06-09T02:45:33.260Z,99107.39
2018-06-09T02:47:09.231Z,99105.59
2018-06-09T02:48:45.318Z,99104.56
2018-06-09T02:50:21.415Z,99112.73
2018-06-09T02:51:57.390Z,99110.39
2018-06-09T02:53:33.368Z,99113.55
2018-06-09T02:55:09.405Z,99111.22
2018-06-09T02:56:45.426Z,99113.25
2018-06-09T02:58:21.433Z,99105.11
2018-06-09T02:59:57.438Z,99107.09
2018-06-09T03:01:33.449Z,99098.75
2018-06-09T03:03:09.420Z,99095.23
2018-06-09T03:04:45.488Z,99094.23
2018-06-09T03:06:21.447Z,99095.44
2018-06-09T03:07:57.507Z,99094.94
2018-06-09T03:09:33.455Z,99096.77
2018-06-09T03:11:09.457Z,99110.75
2018-06-09T03:12:45.452Z,99102.40
2018-06-09T03:14:22.295Z,99111.06
2018-06-09T03:15:58.280Z,99114.91
2018-06-09T03:17:34.293Z,99111.06
2018-06-09T03:19:10.528Z,99112.25
2018-06-09T03:20:46.671Z,99113.27
2018-06-09T03:22:22.944Z,99114.42
2018-06-09T03:23:58.885Z,99123.03
2018-06-09T03:25:34.849Z,99125.52
2018-06-09T03:27:10.802Z,99131.36
2018-06-09T03:28:46.817Z,99125.05
2018-06-09T03:30:22.836Z,99129.88
2018-06-09T03:31:58.769Z,99134.19
2018-06-09T03:33:34.811Z,99135.00
2018-06-09T03:35:10.940Z,99141.47
2018-06-09T03:36:47.007Z,99140.66
2018-06-09T03:38:23.312Z,99108.94
2018-06-09T03:39:59.309Z,99147.42
2018-06-09T03:41:35.399Z,99138.08
2018-06-09T03:43:11.547Z,99137.61
2018-06-09T03:44:47.486Z,99136.59
2018-06-09T03:46:23.430Z,99136.75
2018-06-09T03:47:59.476Z,99138.21
2018-06-09T03:49:35.178Z,99136.55
2018-06-09T03:51:10.944Z,99138.39
2018-06-09T03:52:46.906Z,99139.05
2018-06-09T03:54:22.949Z,99107.49
2018-06-09T03:55:58.900Z,99152.15
2018-06-09T03:57:34.851Z,99149.80
2018-06-09T03:59:10.945Z,99149.91
2018-06-09T04:00:46.968Z,99153.69
2018-06-09T04:02:23.101Z,99152.02
2018-06-09T04:03:59.062Z,99142.11
2018-06-09T04:05:35.038Z,99147.86
2018-06-09T04:07:11.058Z,99150.30
2018-06-09T04:10:37.583Z,99140.45
2018-06-09T04:12:13.581Z,99149.13
2018-06-09T04:13:49.551Z,99150.13
2018-06-09T04:15:25.488Z,99150.64
2018-06-09T04:17:01.517Z,99138.67
2018-06-09T04:18:37.997Z,99138.36
2018-06-09T04:20:13.980Z,99142.52
2018-06-09T04:21:50.043Z,99132.09
2018-06-09T04:23:26.053Z,99132.17
2018-06-09T04:25:03.028Z,99131.24
2018-06-09T04:26:39.012Z,99140.47
2018-06-09T04:28:15.016Z,99139.77
2018-06-09T04:29:50.996Z,99138.14
2018-06-09T04:31:26.968Z,99142.94
2018-06-09T04:33:03.302Z,99147.14
2018-06-09T04:34:39.291Z,99151.33
2018-06-09T04:36:15.082Z,99148.63
2018-06-09T04:37:51.079Z,99149.05
2018-06-09T04:39:27.083Z,99149.55
2018-06-09T04:41:03.118Z,99145.23
2018-06-09T04:42:39.818Z,99147.50
2018-06-09T04:44:15.940Z,99152.92
2018-06-09T04:45:51.916Z,99152.08
2018-06-09T04:47:27.958Z,99154.36
2018-06-09T04:49:04.068Z,99161.69
2018-06-09T04:50:40.108Z,99158.73
2018-06-09T04:52:16.431Z,99156.45
2018-06-09T04:53:52.488Z,99158.83
2018-06-09T04:55:28.453Z,99155.72
2018-06-09T04:57:04.632Z,99158.02
2018-06-09T04:58:40.622Z,99160.16
2018-06-09T05:00:16.721Z,99157.72
2018-06-09T05:01:52.676Z,99158.86
2018-06-09T05:03:28.678Z,99163.48
2018-06-09T05:05:04.634Z,99164.81
2018-06-09T05:06:40.888Z,99163.53
2018-06-09T05:08:16.899Z,99161.30
2018-06-09T05:09:52.851Z,99165.14
2018-06-09T05:11:28.813Z,99169.65
2018-06-09T05:13:04.990Z,99173.97
2018-06-09T05:14:40.969Z,99167.62
2018-06-09T05:16:16.951Z,99172.61
2018-06-09T05:17:52.911Z,99171.16
2018-06-09T05:19:30.556Z,99172.24
2018-06-09T05:21:07.052Z,99174.19
2018-06-09T05:22:43.184Z,99180.13
2018-06-09T05:24:19.185Z,99180.63
2018-06-09T05:25:55.214Z,99188.05
2018-06-09T05:27:31.198Z,99181.14
2018-06-09T05:29:07.156Z,99182.80
2018-06-09T05:30:43.257Z,99180.83
2018-06-09T05:32:19.320Z,99174.86
2018-06-09T05:33:55.330Z,99171.91
2018-06-09T05:35:31.325Z,99169.95
2018-06-09T05:37:07.447Z,99171.80
2018-06-09T05:38:43.582Z,99171.73
2018-06-09T05:40:19.741Z,99171.19
2018-06-09T05:41:55.747Z,99170.37
2018-06-09T05:43:31.743Z,99169.48
2018-06-09T05:45:10.588Z,99167.19
2018-06-09T05:46:46.627Z,99162.14
2018-06-09T05:48:22.767Z,99165.97
2018-06-09T05:49:58.874Z,99162.34
2018-06-09T05:51:35.083Z,99167.91
2018-06-09T05:53:11.028Z,99164.91
2018-06-09T05:54:47.052Z,99172.53
2018-06-09T05:56:23.092Z,99173.98
2018-06-09T05:58:00.950Z,99179.56
2018-06-09T05:59:36.943Z,99172.77
2018-06-09T06:01:13.258Z,99169.48
2018-06-09T06:02:49.343Z,99166.59
2018-06-09T06:04:25.405Z,99166.78
2018-06-09T06:06:01.343Z,99166.27
2018-06-09T06:07:37.292Z,99162.22
2018-06-09T06:09:13.304Z,99166.56
2018-06-09T06:10:49.247Z,99170.76
2018-06-09T06:12:25.252Z,99168.72
2018-06-09T06:14:01.235Z,99168.61
2018-06-09T06:15:37.304Z,99165.81
2018-06-09T06:17:13.317Z,99169.38
2018-06-09T06:18:49.295Z,99170.91
2018-06-09T06:20:25.339Z,99170.58
2018-06-09T06:22:01.359Z,99174.31
2018-06-09T06:23:37.788Z,99168.22
2018-06-09T06:25:15.349Z,99173.15
2018-06-09T06:26:51.360Z,99172.42
2018-06-09T06:28:27.497Z,99171.51
2018-06-09T06:30:06.846Z,99171.61
2018-06-09T06:31:42.881Z,99176.47
2018-06-09T06:33:18.935Z,99182.16
2018-06-09T06:34:54.923Z,99181.45
2018-06-09T06:36:31.024Z,99187.53
2018-06-09T06:38:07.799Z,99192.92
2018-06-09T06:39:44.037Z,99191.63
2018-06-09T06:41:20.148Z,99190.48
2018-06-09T06:42:56.369Z,99180.84
2018-06-09T06:44:32.566Z,99191.19
2018-06-09T06:46:08.407Z,99192.50
2018-06-09T06:47:44.349Z,99192.84
2018-06-09T06:49:20.520Z,99192.99
2018-06-09T06:50:56.563Z,99188.80
2018-06-09T06:52:32.671Z,99188.90
2018-06-09T06:54:08.917Z,99193.59
2018-06-09T06:55:45.304Z,99191.96
2018-06-09T06:57:21.736Z,99194.61
2018-06-09T06:58:57.746Z,99190.53
2018-06-09T07:00:33.546Z,99190.84
2018-06-09T07:02:09.525Z,99192.80
2018-06-09T07:03:45.396Z,99186.25
2018-06-09T07:05:21.548Z,99192.75
2018-06-09T07:06:57.691Z,99197.52
2018-06-09T07:08:33.867Z,99191.94
2018-06-09T07:10:09.911Z,99198.00
2018-06-09T07:11:45.853Z,99195.61
2018-06-09T07:13:21.893Z,99192.96
2018-06-09T07:14:57.877Z,99194.16
2018-06-09T07:16:33.903Z,99189.30
2018-06-09T07:18:09.868Z,99190.00
2018-06-09T07:19:45.603Z,99197.01
2018-06-09T07:21:21.374Z,99194.43
2018-06-09T07:22:57.387Z,99194.64
2018-06-09T07:24:33.395Z,99194.03
2018-06-09T07:26:09.326Z,99199.88
2018-06-09T07:27:45.397Z,99192.47
2018-06-09T07:29:21.419Z,99190.29
2018-06-09T07:30:57.416Z,99190.36
2018-06-09T07:32:33.541Z,99193.38
2018-06-09T07:34:09.607Z,99192.77
2018-06-09T07:35:45.599Z,99190.41
2018-06-09T07:37:21.797Z,99190.91
2018-06-09T07:38:57.850Z,99192.98
2018-06-09T07:40:33.930Z,99196.61
2018-06-09T07:42:09.954Z,99196.06
2018-06-09T07:43:45.955Z,99190.13
2018-06-09T07:45:21.980Z,99196.72
2018-06-09T07:46:58.211Z,99195.70
2018-06-09T07:48:34.383Z,99194.16
2018-06-09T07:50:10.326Z,99191.82
2018-06-09T07:51:46.331Z,99188.39
2018-06-09T07:53:22.194Z,99183.11
2018-06-09T07:54:57.941Z,99183.22
2018-06-09T07:56:33.914Z,99176.50
2018-06-09T07:58:09.877Z,99183.51
2018-06-09T07:59:45.911Z,99177.01
2018-06-09T08:01:22.246Z,99178.63
2018-06-09T08:02:58.247Z,99180.94
2018-06-09T08:04:34.229Z,99184.54
2018-06-09T08:06:10.338Z,99178.20
2018-06-09T08:07:46.322Z,99179.55
2018-06-09T08:09:22.299Z,99170.95
2018-06-09T08:10:58.258Z,99169.89
2018-06-09T08:12:34.244Z,99169.28
2018-06-09T08:14:10.193Z,99169.56
2018-06-09T08:15:46.273Z,99168.22
2018-06-09T08:17:22.415Z,99170.07
2018-06-09T08:18:58.391Z,99168.81
2018-06-09T08:20:34.361Z,99169.23
2018-06-09T08:22:10.380Z,99172.80
2018-06-09T08:23:46.374Z,99170.58
2018-06-09T08:25:22.317Z,99167.33
2018-06-09T08:26:58.296Z,99172.16
2018-06-09T08:28:34.288Z,99162.95
2018-06-09T08:30:11.323Z,99159.46
2018-06-09T08:31:47.548Z,99167.63
2018-06-09T08:33:23.881Z,99164.22
2018-06-09T08:34:59.846Z,99165.40
2018-06-09T08:36:35.910Z,99164.05
2018-06-09T08:38:11.830Z,99166.17
2018-06-09T08:39:47.808Z,99164.45
2018-06-09T08:41:23.859Z,99160.25
2018-06-09T08:42:59.907Z,99165.56
2018-06-09T08:44:36.172Z,99161.63
2018-06-09T08:46:12.149Z,99161.47
2018-06-09T08:47:48.185Z,99160.12
2018-06-09T08:49:24.225Z,99156.96
2018-06-09T08:51:00.205Z,99157.48
2018-06-09T08:52:36.242Z,99151.70
2018-06-09T08:54:12.276Z,99143.19
2018-06-09T08:55:48.289Z,99144.25
2018-06-09T08:57:24.315Z,99147.55
2018-06-09T08:59:00.339Z,99148.22
2018-06-09T09:00:36.340Z,99145.31
2018-06-09T09:02:12.354Z,99141.95
2018-06-09T09:03:48.408Z,99149.98
2018-06-09T09:05:24.629Z,99147.80
2018-06-09T09:07:00.646Z,99153.73
2018-06-09T09:08:36.357Z,99147.63
2018-06-09T09:10:12.189Z,99153.15
2018-06-09T09:11:48.184Z,99148.20
2018-06-09T09:13:24.216Z,99150.54
2018-06-09T09:15:00.372Z,99148.66
2018-06-09T09:16:36.395Z,99140.39
2018-06-09T09:18:12.528Z,99133.52
2018-06-09T09:19:48.504Z,99136.50
2018-06-09T09:21:24.490Z,99136.26
2018-06-09T09:23:00.474Z,99136.19
2018-06-09T09:24:36.423Z,99133.16
2018-06-09T09:26:12.996Z,99134.19
2018-06-09T09:27:48.990Z,99136.47
2018-06-09T09:29:25.717Z,99131.80
2018-06-09T09:31:01.684Z,99127.38
2018-06-09T09:32:37.822Z,99135.57
2018-06-09T09:34:13.797Z,99134.22
2018-06-09T09:35:49.819Z,99123.56
2018-06-09T09:37:25.825Z,99124.56
2018-06-09T09:39:01.749Z,99126.30
2018-06-09T09:40:37.756Z,99118.13
2018-06-09T09:42:14.521Z,99115.02
2018-06-09T09:43:50.495Z,99116.11
2018-06-09T09:45:26.463Z,99119.01
2018-06-09T09:47:02.453Z,99119.48
2018-06-09T09:48:38.285Z,99121.91
2018-06-09T09:50:14.146Z,99113.15
2018-06-09T09:51:50.898Z,99102.31
2018-06-09T09:53:26.852Z,99102.34
2018-06-09T09:55:02.843Z,99104.78
2018-06-09T09:56:38.835Z,99105.84
2018-06-09T09:58:14.865Z,99109.20
2018-06-09T09:59:50.818Z,99112.83
2018-06-09T10:01:26.815Z,99107.58
2018-06-09T10:03:02.829Z,99108.27
2018-06-09T10:04:39.084Z,99114.31
2018-06-09T10:06:15.134Z,99111.61
2018-06-09T10:07:51.083Z,99111.59
2018-06-09T10:09:27.116Z,99113.92
2018-06-09T10:11:03.099Z,99112.13
2018-06-09T10:12:39.086Z,99112.44
2018-06-09T10:14:15.175Z,99107.87
2018-06-09T10:15:51.184Z,99115.09
2018-06-09T10:17:27.222Z,99109.09
2018-06-09T10:19:03.331Z,99108.19
2018-06-09T10:20:39.485Z,99107.16
2018-06-09T10:22:15.499Z,99108.91
2018-06-09T10:23:51.528Z,99105.69
2018-06-09T10:25:27.544Z,99100.06
2018-06-09T10:27:03.502Z,99104.09
2018-06-09T10:28:42.525Z,99106.34
2018-06-09T10:30:18.732Z,99102.48
2018-06-09T10:31:54.763Z,99098.89
2018-06-09T10:33:35.312Z,99098.83
2018-06-09T10:35:11.413Z,99100.70
2018-06-09T10:36:47.444Z,99102.53
2018-06-09T10:38:23.453Z,99102.32
2018-06-09T10:39:59.475Z,99095.67
2018-06-09T10:41:35.491Z,99092.50
2018-06-09T10:43:11.557Z,99091.49
2018-06-09T10:44:47.532Z,99090.47
2018-06-09T10:46:23.525Z,99087.25
2018-06-09T10:47:59.556Z,99078.86
2018-06-09T10:49:35.525Z,99080.68
2018-06-09T10:51:11.457Z,99065.48
2018-06-09T10:52:48.285Z,99067.81
2018-06-09T10:54:24.356Z,99066.34
2018-06-09T10:56:00.317Z,99072.81
2018-06-09T10:57:36.364Z,99079.25
2018-06-09T10:59:12.366Z,99074.98
2018-06-09T11:00:48.377Z,99080.62
2018-06-09T11:02:24.420Z,99075.69
2018-06-09T11:04:00.424Z,99062.25
2018-06-09T11:05:36.408Z,99065.53
2018-06-09T11:07:12.445Z,99067.45
2018-06-09T11:08:48.460Z,99061.52
2018-06-09T11:10:24.907Z,99068.27
2018-06-09T11:12:01.011Z,99066.66
2018-06-09T11:13:37.236Z,99069.64
2018-06-09T11:15:13.310Z,99070.98
2018-06-09T11:16:49.354Z,99067.31
2018-06-09T11:18:25.159Z,99074.91
2018-06-09T11:20:00.984Z,99063.70
2018-06-09T11:21:37.181Z,99067.13
2018-06-09T11:23:13.246Z,99070.41
2018-06-09T11:24:50.115Z,99072.89
2018-06-09T11:26:26.165Z,99066.36
2018-06-09T11:28:02.569Z,99068.48
2018-06-09T11:29:38.615Z,99062.74
2018-06-09T11:31:14.615Z,99066.59
2018-06-09T11:32:50.728Z,99084.41
2018-06-09T11:34:26.655Z,99076.56
2018-06-09T11:36:02.854Z,99072.20
2018-06-09T11:37:38.963Z,99071.55
2018-06-09T11:39:14.909Z,99071.20
2018-06-09T11:40:51.063Z,99076.19
2018-06-09T11:42:27.217Z,99063.81
2018-06-09T11:44:03.355Z,99055.87
2018-06-09T11:45:39.285Z,99055.09
2018-06-09T11:47:15.306Z,99050.85
2018-06-09T11:48:51.310Z,99057.58
2018-06-09T11:50:27.443Z,99057.01
2018-06-09T11:52:03.459Z,99052.62
2018-06-09T11:53:39.513Z,99058.85
2018-06-09T11:55:15.565Z,99063.39
2018-06-09T11:56:51.573Z,99049.53
2018-06-09T11:58:28.922Z,99047.05
2018-06-09T12:00:04.949Z,99042.13
2018-06-09T12:01:41.142Z,99042.38
2018-06-09T12:03:17.411Z,99034.49
2018-06-09T12:04:53.437Z,99047.82
2018-06-09T12:06:29.510Z,99050.27
2018-06-09T12:08:05.555Z,99047.86
2018-06-09T12:09:41.556Z,99059.85
2018-06-09T12:11:17.576Z,99054.55
2018-06-09T12:12:53.687Z,99054.98
2018-06-09T12:14:29.884Z,99059.78
2018-06-09T12:16:05.968Z,99052.23
2018-06-09T12:17:41.945Z,99053.33
2018-06-09T12:19:17.928Z,99050.81
2018-06-09T12:20:54.040Z,99056.84
2018-06-09T12:22:30.397Z,99061.80
2018-06-09T12:24:06.374Z,99062.16
2018-06-09T12:25:42.315Z,99070.14
2018-06-09T12:27:18.332Z,99080.77
2018-06-09T12:28:54.377Z,99097.86
2018-06-09T12:30:30.388Z,99103.63
2018-06-09T12:32:06.352Z,99114.80
2018-06-09T12:33:42.375Z,99109.81
2018-06-09T12:35:18.347Z,99109.63
2018-06-09T12:36:54.331Z,99111.41
2018-06-09T12:38:31.021Z,99121.52
2018-06-09T12:40:07.106Z,99123.25
2018-06-09T12:41:45.245Z,99124.73
2018-06-09T12:43:22.387Z,99123.62
2018-06-09T12:44:58.699Z,99119.57
2018-06-09T12:46:34.841Z,99133.84
2018-06-09T12:48:10.837Z,99143.39
2018-06-09T12:49:46.811Z,99144.81
2018-06-09T12:51:22.886Z,99141.36
2018-06-09T12:52:58.797Z,99137.02
2018-06-09T12:54:34.883Z,99138.21
2018-06-09T12:56:10.862Z,99133.42
2018-06-09T12:57:47.133Z,99129.52
2018-06-09T12:59:23.446Z,99130.44
2018-06-09T13:00:59.416Z,99130.20
2018-06-09T13:02:35.385Z,99135.67
2018-06-09T13:04:12.723Z,99141.58
2018-06-09T13:05:49.022Z,99140.62
2018-06-09T13:07:25.937Z,99152.74
2018-06-09T13:09:01.926Z,99153.00
2018-06-09T13:10:38.528Z,99152.67
2018-06-09T13:12:14.876Z,99151.45
2018-06-09T13:13:50.946Z,99146.51
2018-06-09T13:15:27.771Z,99156.10
2018-06-09T13:17:10.470Z,99153.64
2018-06-09T13:18:46.411Z,99148.02
2018-06-09T13:20:22.424Z,99149.64
2018-06-09T13:22:00.176Z,99150.51
2018-06-09T13:23:37.265Z,99149.17
2018-06-09T13:25:13.600Z,99155.48
2018-06-09T13:26:49.640Z,99162.05
2018-06-09T13:28:26.461Z,99156.23
2018-06-09T13:30:02.470Z,99154.97
2018-06-09T13:31:38.611Z,99151.77
2018-06-09T13:33:14.967Z,99145.64
2018-06-09T13:34:50.922Z,99144.17
2018-06-09T13:36:27.347Z,99143.94
2018-06-09T13:38:03.349Z,99142.14
2018-06-09T13:39:39.571Z,99149.20
2018-06-09T13:41:17.137Z,99140.72
2018-06-09T13:42:53.225Z,99150.00
2018-06-09T13:44:29.464Z,99142.91
2018-06-09T13:46:05.433Z,99145.08
2018-06-09T13:47:41.457Z,99145.24
2018-06-09T13:49:17.477Z,99140.16
2018-06-09T13:50:59.343Z,99145.78
2018-06-09T13:52:35.319Z,99142.34
2018-06-09T13:54:11.488Z,99135.70
2018-06-09T13:55:47.479Z,99139.73
2018-06-09T13:57:23.669Z,99142.11
2018-06-09T13:58:59.673Z,99139.91
2018-06-09T14:00:35.655Z,99138.05
2018-06-09T14:02:11.612Z,99130.04
2018-06-09T14:03:47.586Z,99123.48
2018-06-09T14:05:23.944Z,99124.25
2018-06-09T14:06:59.944Z,99117.41
2018-06-09T14:08:36.191Z,99113.05
2018-06-09T14:10:12.296Z,99105.31
2018-06-09T14:11:48.612Z,99101.28
2018-06-09T14:13:24.634Z,99094.05
2018-06-09T14:15:00.713Z,99093.91
2018-06-09T14:16:37.125Z,99090.53
2018-06-09T14:18:13.276Z,99080.22
2018-06-09T14:19:49.222Z,99077.50
2018-06-09T14:21:25.221Z,99074.56
2018-06-09T14:23:01.212Z,99062.41
2018-06-09T14:24:37.171Z,99057.83
2018-06-09T14:26:13.408Z,99061.09
2018-06-09T14:27:49.814Z,99062.10
2018-06-09T14:29:26.111Z,99055.44
2018-06-09T14:31:02.115Z,99049.04
2018-06-09T14:32:38.590Z,99044.60
2018-06-09T14:34:14.588Z,99035.77
2018-06-09T14:35:50.628Z,99037.55
2018-06-09T14:37:26.640Z,99030.94
2018-06-09T14:39:02.638Z,99022.73
2018-06-09T14:40:38.632Z,99020.41
2018-06-09T14:42:14.403Z,99020.25
2018-06-09T14:43:51.406Z,99021.47
2018-06-09T14:45:27.784Z,99016.88
2018-06-09T14:47:05.464Z,99011.26
2018-06-09T14:48:41.671Z,99010.63
2018-06-09T14:50:18.034Z,99004.41
2018-06-09T14:51:54.607Z,99003.81
2018-06-09T14:53:31.506Z,98995.97
2018-06-09T14:55:07.960Z,98997.63
2018-06-09T14:56:44.038Z,98991.11
2018-06-09T14:58:20.937Z,98983.05
2018-06-09T14:59:57.439Z,98985.14
2018-06-09T15:01:34.194Z,98978.91
2018-06-09T15:03:10.521Z,98977.86
2018-06-09T15:04:47.123Z,98970.47
2018-06-09T15:06:27.772Z,98966.97
2018-06-09T15:08:04.502Z,98962.24
2018-06-09T15:09:40.485Z,98957.81
2018-06-09T15:11:16.935Z,98967.68
2018-06-09T15:12:54.033Z,98966.55
2018-06-09T15:14:34.505Z,98968.86
2018-06-09T15:16:12.875Z,98973.52
2018-06-09T15:17:50.018Z,98979.44
2018-06-09T15:19:26.699Z,98981.89
2018-06-09T15:21:02.902Z,98981.58
2018-06-09T15:22:40.487Z,98991.07
2018-06-09T15:24:17.855Z,98996.45
2018-06-09T15:26:01.069Z,98995.41
2018-06-09T15:27:44.826Z,99006.61
2018-06-09T15:29:22.184Z,99003.22
2018-06-09T15:31:00.528Z,99013.31
2018-06-09T15:32:38.414Z,99014.94
2018-06-09T15:34:17.811Z,99016.13
2018-06-09T15:35:55.065Z,99016.05
2018-06-09T15:37:39.157Z,99015.33
2018-06-09T15:39:25.095Z,99012.44
2018-06-09T15:41:08.895Z,99010.46
2018-06-09T15:42:56.896Z,99014.66
2018-06-09T15:44:35.304Z,99011.56
2018-06-09T15:46:20.451Z,99011.69
2018-06-09T15:48:05.121Z,99015.14
2018-06-09T15:49:41.777Z,99021.11
2018-06-09T15:51:29.055Z,99026.30
2018-06-09T15:53:14.904Z,99028.13
2018-06-09T15:55:07.230Z,99037.04
2018-06-09T15:58:31.760Z,99031.93
2018-06-09T16:03:56.955Z,99039.30
2018-06-09T16:07:25.410Z,99036.68
2018-06-09T16:09:08.407Z,99038.91
2018-06-09T16:12:35.770Z,99039.81
2018-06-09T16:14:13.014Z,99045.72
2018-06-09T16:15:49.241Z,99048.02
2018-06-09T16:17:27.274Z,99046.91
2018-06-09T16:19:04.614Z,99049.44
2018-06-09T16:20:41.130Z,99051.35
2018-06-09T16:22:17.857Z,99057.02
2018-06-09T16:23:53.940Z,99049.11
2018-06-09T16:25:30.493Z,99051.41
2018-06-09T16:27:07.168Z,99051.53
2018-06-09T16:28:43.255Z,99055.73
2018-06-09T16:30:19.741Z,99055.45
2018-06-09T16:31:55.931Z,99052.60
2018-06-09T16:33:31.921Z,99054.55
2018-06-09T16:35:07.908Z,99055.73
2018-06-09T16:36:43.993Z,99054.50
2018-06-09T16:38:20.810Z,99051.73
2018-06-09T16:39:56.849Z,99055.81
2018-06-09T16:41:32.904Z,99053.80
2018-06-09T16:43:08.924Z,99047.81
2018-06-09T16:44:44.924Z,99054.35
2018-06-09T16:46:21.273Z,99054.50
2018-06-09T16:47:57.570Z,99051.12
2018-06-09T16:49:34.289Z,99061.27
2018-06-09T16:51:10.493Z,99056.81
2018-06-09T16:52:46.538Z,99067.88
2018-06-09T16:54:22.681Z,99065.41
2018-06-09T16:55:58.652Z,99058.69
2018-06-09T16:57:34.515Z,99065.80
2018-06-09T16:59:10.539Z,99070.95
2018-06-09T17:00:48.077Z,99062.49
2018-06-09T17:02:24.385Z,99056.66
2018-06-09T17:04:01.572Z,99054.72
2018-06-09T17:05:38.006Z,99056.13
2018-06-09T17:07:18.415Z,99058.75
2018-06-09T17:08:54.306Z,99057.33
2018-06-09T17:10:30.288Z,99050.80
2018-06-09T17:12:11.762Z,99051.94
2018-06-09T17:13:47.712Z,99047.61
2018-06-09T17:15:23.591Z,99048.13
2018-06-09T17:16:59.609Z,99039.81
2018-06-09T17:18:38.361Z,99047.30
2018-06-09T17:20:15.635Z,99043.50
2018-06-09T17:21:54.877Z,99046.55
2018-06-09T17:23:31.460Z,99041.16
2018-06-09T17:25:08.086Z,99040.56
2018-06-09T17:26:44.880Z,99044.92
2018-06-09T17:28:21.384Z,99043.58
2018-06-09T17:29:58.656Z,99039.38
2018-06-09T17:31:35.985Z,99044.33
2018-06-09T17:33:14.272Z,99040.48
2018-06-09T17:34:52.063Z,99042.51
2018-06-09T17:36:32.681Z,99039.38
2018-06-09T17:38:13.680Z,99044.59
2018-06-09T17:39:53.854Z,99046.25
2018-06-09T17:41:34.677Z,99045.23
2018-06-09T17:45:00.695Z,99036.06
2018-06-09T17:46:36.913Z,99036.84
2018-06-09T17:48:13.928Z,99039.84
2018-06-09T17:49:50.352Z,99040.64
2018-06-09T17:51:31.486Z,99045.59
2018-06-09T17:53:07.904Z,99047.25
2018-06-09T17:54:43.935Z,99048.52
2018-06-09T17:56:21.343Z,99049.53
2018-06-09T17:57:59.144Z,99054.97
2018-06-09T17:59:36.284Z,99054.50
2018-06-09T18:01:13.544Z,99045.36
2018-06-09T18:02:50.739Z,99048.56
2018-06-09T18:04:26.869Z,99052.64
2018-06-09T18:06:03.885Z,99005.49
2018-06-09T18:07:40.514Z,99056.23
2018-06-09T18:09:17.273Z,99063.31
2018-06-09T18:10:54.388Z,99061.05
2018-06-09T18:12:30.812Z,99058.95
2018-06-09T18:14:07.176Z,99060.20
2018-06-09T18:15:43.917Z,99057.89
2018-06-09T18:17:22.116Z,99056.12
2018-06-09T18:19:01.283Z,99055.20
2018-06-09T18:20:37.767Z,99061.24
2018-06-09T18:22:14.963Z,99063.87
2018-06-09T18:23:57.879Z,99059.98
2018-06-09T18:25:34.526Z,99057.80
2018-06-09T18:27:11.277Z,99059.75
2018-06-09T18:28:47.425Z,99064.91
2018-06-09T18:30:24.733Z,99066.25
2018-06-09T18:32:02.333Z,99070.42
2018-06-09T18:33:40.962Z,99076.48
2018-06-09T18:35:19.072Z,99071.37
2018-06-09T18:36:57.737Z,99071.40
2018-06-09T18:38:35.405Z,99067.29
2018-06-09T18:40:11.542Z,99066.05
2018-06-09T18:41:47.595Z,99063.49
2018-06-09T18:43:25.594Z,99061.81
2018-06-09T18:45:03.095Z,99041.02
2018-06-09T18:46:40.396Z,99058.06
2018-06-09T18:48:16.837Z,99056.86
2018-06-09T18:49:53.056Z,99055.66
2018-06-09T18:51:29.088Z,99062.98
2018-06-09T18:53:05.184Z,99065.06
2018-06-09T18:54:41.508Z,99079.84
2018-06-09T18:56:17.979Z,99081.19
2018-06-09T18:57:54.297Z,99078.17
2018-06-09T18:59:30.593Z,99079.42
2018-06-09T19:01:06.802Z,99081.70
2018-06-09T19:02:44.083Z,99084.23
2018-06-09T19:04:26.371Z,99088.26
2018-06-09T19:06:03.104Z,99091.48